Time;durP1;ratioP1;P1;durP2;ratioP2;P2;SDS_P1;SDS_P2;PMS_P1;PMS_P2;Temp;Humidity;BMP_temperature;BMP_pressure;BME280_temperature;BME280_humidity;BME280_pressure;Samples;Min_cycle;Max_cycle;Signal;HPM_P1;HPM_P2
2022/11/11 00:00:59;;;;;;;6.70;5.67;;;;;;;;;;5100202;28;20209;-66
2022/11/11 00:03:29;;;;;;;7.60;5.13;;;;;;;;;;5099580;28;20609;-66
2022/11/11 00:06:00;;;;;;;6.27;5.53;;;;;;;;;;5085961;28;20202;-66
2022/11/11 00:08:28;;;;;;;9.63;5.80;;;;;;;;;;5099739;28;20211;-66
2022/11/11 00:11:00;;;;;;;6.20;5.60;;;;;;;;;;5099890;28;20233;-65
2022/11/11 00:13:28;;;;;;;7.47;5.30;;;;;;;;;;5099432;28;20233;-66
2022/11/11 00:15:56;;;;;;;9.37;6.10;;;;;;;;;;5099613;28;20211;-66
2022/11/11 00:26:45;;;;;;;7.03;5.83;;;;;;;;;;5098589;28;20274;-64
2022/11/11 00:29:13;;;;;;;6.57;5.40;;;;;;;;;;5102902;28;20205;-64
2022/11/11 00:34:22;;;;;;;8.27;6.23;;;;;;;;;;5098849;28;20225;-65
2022/11/11 00:36:51;;;;;;;9.23;5.90;;;;;;;;;;5098639;28;20225;-65
2022/11/11 00:39:19;;;;;;;9.67;6.20;;;;;;;;;;5099268;28;20205;-65
2022/11/11 00:41:47;;;;;;;9.83;6.40;;;;;;;;;;5098830;28;20281;-65
2022/11/11 00:44:15;;;;;;;9.00;6.00;;;;;;;;;;5098909;28;20221;-64
2022/11/11 00:52:15;;;;;;;7.67;5.63;;;;;;;;;;5098837;28;20209;-65
2022/11/11 00:54:43;;;;;;;9.17;6.60;;;;;;;;;;5099087;28;20229;-65
2022/11/11 00:57:11;;;;;;;10.77;6.60;;;;;;;;;;5097257;28;20229;-66
2022/11/11 00:59:39;;;;;;;13.80;6.33;;;;;;;;;;5098700;28;20206;-65
2022/11/11 01:02:07;;;;;;;6.93;5.90;;;;;;;;;;5098384;28;20209;-65
2022/11/11 01:04:35;;;;;;;9.70;6.93;;;;;;;;;;5097211;28;20217;-65
2022/11/11 01:07:03;;;;;;;8.13;6.90;;;;;;;;;;5096678;28;20202;-64
2022/11/11 01:09:33;;;;;;;9.70;7.60;;;;;;;;;;5084423;28;20206;-65
2022/11/11 01:12:01;;;;;;;11.87;7.10;;;;;;;;;;5098273;28;20236;-65
2022/11/11 01:14:30;;;;;;;13.60;7.10;;;;;;;;;;5097969;28;20225;-65
2022/11/11 01:16:58;;;;;;;14.40;7.93;;;;;;;;;;5098242;28;20653;-66
2022/11/11 01:19:26;;;;;;;9.90;7.03;;;;;;;;;;5098351;28;20205;-66
2022/11/11 01:21:54;;;;;;;10.73;7.47;;;;;;;;;;5098123;28;20202;-66
2022/11/11 01:24:22;;;;;;;9.10;6.87;;;;;;;;;;5098064;28;20252;-65
2022/11/11 01:26:52;;;;;;;11.83;8.43;;;;;;;;;;5097327;28;20209;-65
2022/11/11 01:29:20;;;;;;;9.87;7.07;;;;;;;;;;5102537;28;20288;-65
2022/11/11 01:31:48;;;;;;;8.77;6.23;;;;;;;;;;5097892;28;20681;-65
2022/11/11 01:34:16;;;;;;;10.47;7.10;;;;;;;;;;5097182;28;20588;-65
2022/11/11 01:36:44;;;;;;;9.90;7.30;;;;;;;;;;5084860;28;20262;-66
2022/11/11 01:39:12;;;;;;;11.17;7.10;;;;;;;;;;5097988;28;20201;-66
2022/11/11 01:41:40;;;;;;;11.60;7.73;;;;;;;;;;5097722;28;20202;-65
2022/11/11 01:44:18;;;;;;;12.03;7.33;;;;;;;;;;5097258;28;20247;-66
2022/11/11 01:46:48;;;;;;;10.83;8.03;;;;;;;;;;5097919;28;20526;-65
2022/11/11 01:49:20;;;;;;;11.03;7.73;;;;;;;;;;5097714;28;20213;-65
2022/11/11 01:51:51;;;;;;;9.00;7.73;;;;;;;;;;5097957;28;20225;-66
2022/11/11 01:54:21;;;;;;;11.80;8.10;;;;;;;;;;5097883;28;20243;-66
2022/11/11 01:56:50;;;;;;;12.00;8.40;;;;;;;;;;5096633;28;20248;-66
2022/11/11 01:59:20;;;;;;;12.30;8.60;;;;;;;;;;5097569;28;20202;-65
2022/11/11 02:01:49;;;;;;;13.27;8.60;;;;;;;;;;5097709;28;20216;-65
2022/11/11 02:07:04;;;;;;;11.17;8.77;;;;;;;;;;5087237;28;20266;-66
2022/11/11 02:09:32;;;;;;;14.57;9.33;;;;;;;;;;5097679;28;20677;-66
2022/11/11 02:14:52;;;;;;;14.03;8.67;;;;;;;;;;5084143;28;20353;-65
2022/11/11 02:17:21;;;;;;;15.27;10.20;;;;;;;;;;5097348;28;20569;-65
2022/11/11 02:19:51;;;;;;;11.83;9.27;;;;;;;;;;5097577;28;20213;-66
2022/11/11 02:22:23;;;;;;;13.47;9.67;;;;;;;;;;5097547;28;20227;-66
2022/11/11 02:24:54;;;;;;;17.83;10.70;;;;;;;;;;5097210;28;20587;-65
2022/11/11 02:27:23;;;;;;;16.07;9.70;;;;;;;;;;5096401;28;20201;-65
2022/11/11 02:29:54;;;;;;;18.57;10.47;;;;;;;;;;5102617;28;20201;-66
2022/11/11 02:32:22;;;;;;;12.00;9.60;;;;;;;;;;5097799;28;20237;-66
2022/11/11 02:34:50;;;;;;;14.27;9.70;;;;;;;;;;5096006;28;20312;-66
2022/11/11 02:37:19;;;;;;;15.53;9.63;;;;;;;;;;5096514;28;20292;-65
2022/11/11 02:39:49;;;;;;;12.33;9.03;;;;;;;;;;5084827;28;20232;-66
2022/11/11 02:42:33;;;;;;;12.00;8.93;;;;;;;;;;5084087;28;20555;-66
2022/11/11 02:45:01;;;;;;;15.07;10.17;;;;;;;;;;5097559;28;20225;-66
2022/11/11 02:47:29;;;;;;;12.07;8.53;;;;;;;;;;5097528;28;20211;-66
2022/11/11 02:49:57;;;;;;;15.03;9.50;;;;;;;;;;5097549;28;20209;-65
2022/11/11 02:52:25;;;;;;;14.07;9.63;;;;;;;;;;5097267;28;20229;-65
2022/11/11 02:54:53;;;;;;;15.17;9.60;;;;;;;;;;5096400;28;20283;-66
2022/11/11 02:57:22;;;;;;;14.37;9.53;;;;;;;;;;5096158;28;20237;-65
2022/11/11 02:59:51;;;;;;;14.53;9.10;;;;;;;;;;5097058;28;20311;-66
2022/11/11 03:02:19;;;;;;;13.20;9.43;;;;;;;;;;5096867;28;20228;-65
2022/11/11 03:04:48;;;;;;;13.17;9.03;;;;;;;;;;5096934;28;20289;-66
2022/11/11 03:07:16;;;;;;;14.40;9.17;;;;;;;;;;5097072;28;20766;-65
2022/11/11 03:09:44;;;;;;;15.63;9.90;;;;;;;;;;5099178;28;20358;-65
2022/11/11 03:12:12;;;;;;;12.90;8.87;;;;;;;;;;5100421;28;20595;-66
2022/11/11 03:14:40;;;;;;;14.87;9.10;;;;;;;;;;5100833;28;20240;-65
2022/11/11 03:21:03;;;;;;;13.60;8.87;;;;;;;;;;5089451;28;20205;-66
2022/11/11 03:22:43;;;;;;;11.80;8.83;;;;;;;;;;5100564;28;20565;-66
2022/11/11 03:25:40;;;;;;;14.67;9.20;;;;;;;;;;5099634;28;20312;-65
2022/11/11 03:28:09;;;;;;;11.30;8.70;;;;;;;;;;5102637;28;20209;-64
2022/11/11 03:30:37;;;;;;;15.97;9.07;;;;;;;;;;5100604;28;20571;-65
2022/11/11 03:33:06;;;;;;;11.13;8.53;;;;;;;;;;5100056;28;20240;-65
2022/11/11 03:35:35;;;;;;;13.97;9.03;;;;;;;;;;5100421;28;20208;-64
2022/11/11 03:38:22;;;;;;;13.73;9.43;;;;;;;;;;5100591;28;20293;-64
2022/11/11 03:40:52;;;;;;;13.67;9.33;;;;;;;;;;5100484;28;20213;-64
2022/11/11 03:43:20;;;;;;;11.63;9.10;;;;;;;;;;5100025;28;20209;-65
2022/11/11 03:45:48;;;;;;;16.00;9.67;;;;;;;;;;5100448;28;20212;-64
2022/11/11 03:48:18;;;;;;;14.00;9.07;;;;;;;;;;5100449;28;20292;-64
2022/11/11 03:50:47;;;;;;;14.93;8.90;;;;;;;;;;5100283;28;20201;-64
2022/11/11 03:53:15;;;;;;;13.73;8.87;;;;;;;;;;5100023;28;20628;-65
2022/11/11 03:55:43;;;;;;;15.13;9.07;;;;;;;;;;5099540;28;20197;-64
2022/11/11 03:58:12;;;;;;;16.17;9.27;;;;;;;;;;5099582;28;20233;-64
2022/11/11 04:00:39;;;;;;;14.20;8.80;;;;;;;;;;5098089;28;20208;-64
2022/11/11 04:11:28;;;;;;;12.63;8.77;;;;;;;;;;5099954;28;20212;-65
2022/11/11 04:16:43;;;;;;;14.33;9.03;;;;;;;;;;5099493;28;20194;-66
2022/11/11 04:21:57;;;;;;;13.33;8.80;;;;;;;;;;5099453;28;20231;-66
2022/11/11 04:27:12;;;;;;;13.83;9.67;;;;;;;;;;5087352;28;20216;-65
2022/11/11 04:29:39;;;;;;;15.23;10.20;;;;;;;;;;5102084;28;20564;-64
2022/11/11 04:34:54;;;;;;;16.63;9.97;;;;;;;;;;5097472;28;20564;-65
2022/11/11 04:37:24;;;;;;;11.97;9.13;;;;;;;;;;5099326;28;20206;-64
2022/11/11 04:42:38;;;;;;;14.17;9.00;;;;;;;;;;5098964;28;20206;-65
2022/11/11 04:47:53;;;;;;;14.33;9.93;;;;;;;;;;5099254;28;20213;-65
2022/11/11 04:50:21;;;;;;;14.00;8.97;;;;;;;;;;5099034;28;20588;-64
2022/11/11 04:52:50;;;;;;;12.17;9.33;;;;;;;;;;5099158;28;20229;-64
2022/11/11 04:58:04;;;;;;;15.43;9.43;;;;;;;;;;5098167;28;20241;-64
2022/11/11 05:00:31;;;;;;;13.87;9.10;;;;;;;;;;5098844;28;20551;-64
2022/11/11 05:03:17;;;;;;;14.63;8.90;;;;;;;;;;5097799;28;20197;-65
2022/11/11 05:11:19;;;;;;;13.60;9.27;;;;;;;;;;5095757;28;20205;-65
2022/11/11 05:22:08;;;;;;;14.57;8.87;;;;;;;;;;5095710;28;20304;-64
2022/11/11 05:27:23;;;;;;;14.97;9.60;;;;;;;;;;5091714;28;20213;-64
2022/11/11 05:29:51;;;;;;;13.30;8.50;;;;;;;;;;5100462;28;20208;-64
2022/11/11 05:32:19;;;;;;;12.27;8.13;;;;;;;;;;5096957;28;20288;-65
2022/11/11 05:34:47;;;;;;;12.73;8.53;;;;;;;;;;5097980;28;20218;-65
2022/11/11 05:37:15;;;;;;;12.30;9.27;;;;;;;;;;5097937;28;20200;-65
2022/11/11 05:39:45;;;;;;;13.93;8.20;;;;;;;;;;5098047;28;20203;-65
2022/11/11 05:42:13;;;;;;;13.20;8.60;;;;;;;;;;5094181;28;20205;-66
2022/11/11 05:44:41;;;;;;;11.33;8.20;;;;;;;;;;5096398;28;20221;-65
2022/11/11 05:47:09;;;;;;;17.40;9.30;;;;;;;;;;5096838;28;20562;-64
2022/11/11 05:49:37;;;;;;;13.53;8.63;;;;;;;;;;5097360;28;20201;-64
2022/11/11 05:52:06;;;;;;;14.70;9.27;;;;;;;;;;5096924;28;20208;-65
2022/11/11 05:54:34;;;;;;;15.43;9.23;;;;;;;;;;5096956;28;20221;-65
2022/11/11 05:57:04;;;;;;;13.53;9.07;;;;;;;;;;5095351;28;20334;-64
2022/11/11 05:59:32;;;;;;;11.90;8.40;;;;;;;;;;5096916;28;20197;-64
2022/11/11 06:02:00;;;;;;;14.93;9.00;;;;;;;;;;5094837;28;20208;-66
2022/11/11 06:04:28;;;;;;;14.13;9.43;;;;;;;;;;5096091;28;20249;-64
2022/11/11 06:06:56;;;;;;;15.10;9.03;;;;;;;;;;5096394;28;20760;-65
2022/11/11 06:09:24;;;;;;;14.10;9.27;;;;;;;;;;5097264;28;20271;-64
2022/11/11 06:11:52;;;;;;;13.47;9.43;;;;;;;;;;5095285;28;20209;-66
2022/11/11 06:14:22;;;;;;;12.03;8.57;;;;;;;;;;5097249;28;20227;-65
2022/11/11 06:16:50;;;;;;;15.13;9.13;;;;;;;;;;5094670;28;20204;-66
2022/11/11 06:19:18;;;;;;;13.23;8.93;;;;;;;;;;5094278;28;20198;-64
2022/11/11 06:21:59;;;;;;;14.23;9.30;;;;;;;;;;5095073;28;20201;-63
2022/11/11 06:24:27;;;;;;;15.90;9.93;;;;;;;;;;5096230;28;20213;-64
2022/11/11 06:26:55;;;;;;;15.73;10.27;;;;;;;;;;5097785;28;20202;-64
2022/11/11 06:29:25;;;;;;;13.93;9.43;;;;;;;;;;5097770;28;20197;-64
2022/11/11 06:31:53;;;;;;;12.43;9.07;;;;;;;;;;5097143;28;20574;-64
2022/11/11 06:34:21;;;;;;;16.03;9.67;;;;;;;;;;5096640;28;20240;-64
2022/11/11 06:36:48;;;;;;;15.23;9.47;;;;;;;;;;5097446;28;20204;-63
2022/11/11 06:39:16;;;;;;;16.60;9.50;;;;;;;;;;5097185;28;20201;-64
2022/11/11 06:41:44;;;;;;;15.80;9.27;;;;;;;;;;5095063;28;20568;-62
2022/11/11 06:44:12;;;;;;;15.83;9.23;;;;;;;;;;5098960;28;20216;-63
2022/11/11 06:46:42;;;;;;;15.90;9.73;;;;;;;;;;5098970;28;20204;-64
2022/11/11 06:49:15;;;;;;;15.50;9.67;;;;;;;;;;5100790;28;20193;-62
2022/11/11 06:51:43;;;;;;;17.03;8.73;;;;;;;;;;5099205;28;20198;-62
2022/11/11 06:54:11;;;;;;;14.07;9.10;;;;;;;;;;5100373;28;20308;-64
2022/11/11 06:56:39;;;;;;;12.80;8.83;;;;;;;;;;5097901;28;20240;-64
2022/11/11 06:59:07;;;;;;;15.47;8.80;;;;;;;;;;5100229;28;20193;-63
2022/11/11 07:01:34;;;;;;;13.57;8.73;;;;;;;;;;5100817;28;20826;-60
2022/11/11 07:04:04;;;;;;;13.80;8.87;;;;;;;;;;5093283;28;20217;-61
2022/11/11 07:06:32;;;;;;;15.63;8.97;;;;;;;;;;5098600;28;20206;-64
2022/11/11 07:09:00;;;;;;;16.03;8.80;;;;;;;;;;5099854;28;20291;-62
2022/11/11 07:11:28;;;;;;;15.33;8.83;;;;;;;;;;5099334;28;20668;-62
2022/11/11 07:13:56;;;;;;;12.53;8.47;;;;;;;;;;5100110;28;20235;-64
2022/11/11 07:16:24;;;;;;;12.17;8.43;;;;;;;;;;5101426;28;20197;-64
2022/11/11 07:18:52;;;;;;;14.60;8.13;;;;;;;;;;5099153;28;20197;-64
2022/11/11 07:21:21;;;;;;;14.40;8.90;;;;;;;;;;5099474;28;20202;-64
2022/11/11 07:23:49;;;;;;;14.77;9.33;;;;;;;;;;5099131;28;20223;-64
2022/11/11 07:26:17;;;;;;;13.83;8.80;;;;;;;;;;5099888;28;20223;-65
2022/11/11 07:28:45;;;;;;;11.87;8.03;;;;;;;;;;5099790;28;20201;-65
2022/11/11 07:31:13;;;;;;;14.47;9.03;;;;;;;;;;5099951;28;20209;-64
2022/11/11 07:33:41;;;;;;;11.33;8.93;;;;;;;;;;5099056;28;20229;-63
2022/11/11 07:36:09;;;;;;;14.87;9.17;;;;;;;;;;5099118;28;20205;-64
2022/11/11 07:38:38;;;;;;;13.70;9.10;;;;;;;;;;5099974;28;20201;-64
2022/11/11 07:41:06;;;;;;;15.10;9.73;;;;;;;;;;5098314;28;20233;-63
2022/11/11 07:43:34;;;;;;;16.17;10.17;;;;;;;;;;5095946;28;20217;-64
2022/11/11 07:46:02;;;;;;;14.83;9.53;;;;;;;;;;5100074;28;20580;-65
2022/11/11 07:48:30;;;;;;;14.20;9.77;;;;;;;;;;5099074;28;20213;-63
2022/11/11 07:50:58;;;;;;;13.67;8.87;;;;;;;;;;5099683;28;20209;-64
2022/11/11 07:53:27;;;;;;;13.50;8.07;;;;;;;;;;5099077;28;20221;-64
2022/11/11 07:55:56;;;;;;;13.00;8.50;;;;;;;;;;5097828;28;20210;-65
2022/11/11 07:58:24;;;;;;;15.40;10.03;;;;;;;;;;5099454;28;20212;-64
2022/11/11 08:00:53;;;;;;;12.40;8.80;;;;;;;;;;5095978;28;20661;-64
2022/11/11 08:03:21;;;;;;;15.93;8.53;;;;;;;;;;5098097;28;20543;-64
2022/11/11 08:05:49;;;;;;;13.63;9.20;;;;;;;;;;5099273;28;20665;-64
2022/11/11 08:08:19;;;;;;;14.07;8.27;;;;;;;;;;5099100;28;20277;-65
2022/11/11 08:10:47;;;;;;;13.63;9.30;;;;;;;;;;5099935;28;20220;-63
2022/11/11 08:16:05;;;;;;;12.57;8.67;;;;;;;;;;5096178;28;20671;-64
2022/11/11 08:18:33;;;;;;;14.80;8.70;;;;;;;;;;5094121;28;20206;-63
2022/11/11 08:21:01;;;;;;;11.33;7.93;;;;;;;;;;5099910;28;20205;-63
2022/11/11 08:23:32;;;;;;;13.73;8.13;;;;;;;;;;5097830;28;20221;-63
2022/11/11 08:26:21;;;;;;;12.03;8.60;;;;;;;;;;5098303;28;20208;-63
2022/11/11 08:28:58;;;;;;;14.67;9.17;;;;;;;;;;5100930;28;20711;-64
2022/11/11 08:31:26;;;;;;;10.50;7.60;;;;;;;;;;5098871;28;21003;-63
2022/11/11 08:33:54;;;;;;;12.90;7.97;;;;;;;;;;5098820;28;20229;-64
2022/11/11 08:36:23;;;;;;;11.50;8.27;;;;;;;;;;5091054;28;20202;-63
2022/11/11 08:38:52;;;;;;;13.73;9.33;;;;;;;;;;5098276;28;20240;-64
2022/11/11 08:41:22;;;;;;;12.20;7.87;;;;;;;;;;5097730;28;20253;-63
2022/11/11 08:43:53;;;;;;;12.30;8.10;;;;;;;;;;5097971;28;20220;-64
2022/11/11 08:46:23;;;;;;;10.63;7.73;;;;;;;;;;5097247;28;20206;-64
2022/11/11 08:48:51;;;;;;;9.80;8.00;;;;;;;;;;5096486;28;20677;-65
2022/11/11 08:51:19;;;;;;;10.07;7.00;;;;;;;;;;5097576;28;20204;-64
2022/11/11 08:53:47;;;;;;;10.67;8.07;;;;;;;;;;5098035;28;20223;-64
2022/11/11 08:56:15;;;;;;;10.33;7.07;;;;;;;;;;5098777;28;20239;-64
2022/11/11 08:58:43;;;;;;;11.30;7.93;;;;;;;;;;5098025;28;20216;-64
2022/11/11 09:01:12;;;;;;;12.93;7.90;;;;;;;;;;5097687;28;20201;-64
2022/11/11 09:03:44;;;;;;;12.30;7.17;;;;;;;;;;5097392;28;20225;-65
2022/11/11 09:06:12;;;;;;;10.53;7.50;;;;;;;;;;5085345;28;20205;-64
2022/11/11 09:08:41;;;;;;;9.83;7.70;;;;;;;;;;5095975;28;20278;-64
2022/11/11 09:11:09;;;;;;;10.93;8.00;;;;;;;;;;5096845;28;20213;-64
2022/11/11 09:13:37;;;;;;;11.27;7.33;;;;;;;;;;5092224;28;20218;-64
2022/11/11 09:16:05;;;;;;;9.97;7.33;;;;;;;;;;5097757;28;20229;-64
2022/11/11 09:18:34;;;;;;;10.03;7.20;;;;;;;;;;5095679;28;20201;-64
2022/11/11 09:21:03;;;;;;;11.17;8.10;;;;;;;;;;5095808;28;20216;-64
2022/11/11 09:23:31;;;;;;;11.40;6.83;;;;;;;;;;5094786;28;20240;-64
2022/11/11 09:26:02;;;;;;;12.90;7.77;;;;;;;;;;5094980;28;20201;-64
2022/11/11 09:28:32;;;;;;;12.93;8.23;;;;;;;;;;5095924;28;20251;-64
2022/11/11 09:31:00;;;;;;;10.40;7.27;;;;;;;;;;5095682;28;20236;-64
2022/11/11 09:33:48;;;;;;;8.93;7.40;;;;;;;;;;5093649;28;20280;-64
2022/11/11 09:36:18;;;;;;;10.87;7.13;;;;;;;;;;5089309;28;20570;-64
2022/11/11 09:38:46;;;;;;;10.00;7.70;;;;;;;;;;5097498;28;20207;-63
2022/11/11 09:41:18;;;;;;;9.53;7.80;;;;;;;;;;5083963;28;20201;-64
2022/11/11 09:43:52;;;;;;;11.03;7.70;;;;;;;;;;5097555;28;20220;-64
2022/11/11 09:46:23;;;;;;;11.07;7.83;;;;;;;;;;5086524;28;20201;-64
2022/11/11 09:48:57;;;;;;;10.90;7.93;;;;;;;;;;5098184;28;20216;-64
2022/11/11 09:51:29;;;;;;;8.93;6.83;;;;;;;;;;5097781;28;20201;-64
2022/11/11 09:53:59;;;;;;;10.57;7.50;;;;;;;;;;5097269;28;20220;-64
2022/11/11 09:56:27;;;;;;;10.83;7.40;;;;;;;;;;5096810;28;20229;-64
2022/11/11 09:59:00;;;;;;;12.60;7.60;;;;;;;;;;5097063;28;20203;-64
2022/11/11 10:01:32;;;;;;;12.77;8.73;;;;;;;;;;5096373;28;20205;-63
2022/11/11 10:04:02;;;;;;;11.27;7.37;;;;;;;;;;5095410;28;20228;-63
2022/11/11 10:06:33;;;;;;;12.10;8.33;;;;;;;;;;5097011;28;20252;-64
2022/11/11 10:09:02;;;;;;;9.33;7.07;;;;;;;;;;5096705;28;20207;-64
2022/11/11 10:11:36;;;;;;;12.63;8.63;;;;;;;;;;5088850;28;20234;-64
2022/11/11 10:14:04;;;;;;;11.97;8.53;;;;;;;;;;5095920;28;20560;-64
2022/11/11 10:16:37;;;;;;;11.83;7.50;;;;;;;;;;5096445;28;20625;-64
2022/11/11 10:19:14;;;;;;;10.20;7.07;;;;;;;;;;5101419;28;20201;-64
2022/11/11 10:21:46;;;;;;;10.20;7.83;;;;;;;;;;5103271;28;20201;-64
2022/11/11 10:24:37;;;;;;;10.10;7.77;;;;;;;;;;5101146;28;20225;-64
2022/11/11 10:27:15;;;;;;;12.07;7.70;;;;;;;;;;5101081;28;20627;-64
2022/11/11 10:29:44;;;;;;;10.50;7.67;;;;;;;;;;5106045;28;20205;-65
2022/11/11 10:32:16;;;;;;;10.83;7.53;;;;;;;;;;5103220;28;20201;-64
2022/11/11 10:34:44;;;;;;;10.67;7.20;;;;;;;;;;5103442;28;20232;-63
2022/11/11 10:37:18;;;;;;;11.37;7.43;;;;;;;;;;5102730;28;20201;-64
2022/11/11 10:39:52;;;;;;;8.53;7.60;;;;;;;;;;5100422;28;20208;-64
2022/11/11 10:42:20;;;;;;;13.50;8.13;;;;;;;;;;5103371;28;20223;-64
2022/11/11 10:44:48;;;;;;;9.40;7.53;;;;;;;;;;5101420;28;20217;-63
2022/11/11 10:47:27;;;;;;;8.37;6.90;;;;;;;;;;5101954;28;20209;-65
2022/11/11 10:49:59;;;;;;;11.37;7.67;;;;;;;;;;5103404;28;20209;-65
2022/11/11 10:52:33;;;;;;;11.27;7.70;;;;;;;;;;5103067;28;20221;-65
2022/11/11 10:55:04;;;;;;;10.67;7.40;;;;;;;;;;5101477;28;20225;-65
2022/11/11 10:57:35;;;;;;;10.77;7.80;;;;;;;;;;5100171;28;20649;-65
2022/11/11 11:00:06;;;;;;;8.63;7.23;;;;;;;;;;5103560;28;20201;-64
2022/11/11 11:02:37;;;;;;;9.90;7.63;;;;;;;;;;5103458;28;20206;-65
2022/11/11 11:05:06;;;;;;;8.83;7.57;;;;;;;;;;5102965;28;20218;-64
2022/11/11 11:07:40;;;;;;;10.53;7.20;;;;;;;;;;5102709;28;20225;-65
2022/11/11 11:10:12;;;;;;;15.43;7.50;;;;;;;;;;5103471;28;20201;-63
2022/11/11 11:12:43;;;;;;;12.90;7.80;;;;;;;;;;5100996;28;20209;-63
2022/11/11 11:15:13;;;;;;;9.93;7.83;;;;;;;;;;5104038;28;20233;-63
2022/11/11 11:17:45;;;;;;;12.57;7.70;;;;;;;;;;5104228;28;20208;-64
2022/11/11 11:20:15;;;;;;;10.70;7.00;;;;;;;;;;5089898;28;20285;-63
2022/11/11 11:22:49;;;;;;;10.17;6.47;;;;;;;;;;5101908;28;20193;-63
2022/11/11 11:25:18;;;;;;;7.87;7.00;;;;;;;;;;5102812;28;20228;-64
2022/11/11 11:27:47;;;;;;;9.03;7.10;;;;;;;;;;5101857;28;20231;-63
2022/11/11 11:30:16;;;;;;;10.70;6.80;;;;;;;;;;5097611;28;20202;-66
2022/11/11 11:32:55;;;;;;;8.07;6.93;;;;;;;;;;5095612;28;20268;-63
2022/11/11 11:35:31;;;;;;;10.93;6.90;;;;;;;;;;5088289;28;20225;-65
2022/11/11 11:38:00;;;;;;;8.77;6.47;;;;;;;;;;5086821;28;20205;-65
2022/11/11 11:40:44;;;;;;;8.37;6.57;;;;;;;;;;5099920;28;20201;-64
2022/11/11 11:43:25;;;;;;;7.50;6.73;;;;;;;;;;5099390;28;20198;-63
2022/11/11 11:45:55;;;;;;;8.93;6.53;;;;;;;;;;5100597;28;20201;-63
2022/11/11 11:48:31;;;;;;;11.13;7.40;;;;;;;;;;5094970;28;20276;-62
2022/11/11 11:51:05;;;;;;;9.63;6.80;;;;;;;;;;5099728;28;20205;-63
2022/11/11 11:53:43;;;;;;;9.03;7.50;;;;;;;;;;5097758;28;20580;-63
2022/11/11 11:56:16;;;;;;;11.47;7.33;;;;;;;;;;5099249;28;20568;-63
2022/11/11 11:58:53;;;;;;;8.03;6.83;;;;;;;;;;5099493;28;20201;-64
2022/11/11 12:01:24;;;;;;;8.83;7.17;;;;;;;;;;5098483;28;20204;-64
2022/11/11 12:04:10;;;;;;;10.27;7.60;;;;;;;;;;5097617;28;20688;-65
2022/11/11 12:06:43;;;;;;;7.03;6.30;;;;;;;;;;5077565;28;20201;-64
2022/11/11 12:09:21;;;;;;;10.67;7.33;;;;;;;;;;5098413;28;20229;-63
2022/11/11 12:11:52;;;;;;;9.00;7.30;;;;;;;;;;5098571;28;20212;-63
2022/11/11 12:14:45;;;;;;;8.97;6.53;;;;;;;;;;5097987;28;20248;-64
2022/11/11 12:17:19;;;;;;;8.17;6.17;;;;;;;;;;5098357;28;20688;-63
2022/11/11 12:19:52;;;;;;;9.40;7.67;;;;;;;;;;5097932;28;20205;-64
2022/11/11 12:22:27;;;;;;;8.47;6.37;;;;;;;;;;5094503;28;20202;-63
2022/11/11 12:25:02;;;;;;;10.20;6.90;;;;;;;;;;5096837;28;20225;-65
2022/11/11 12:27:34;;;;;;;8.27;6.27;;;;;;;;;;5098880;28;20197;-65
2022/11/11 12:30:04;;;;;;;10.47;6.23;;;;;;;;;;5085874;28;20209;-65
2022/11/11 12:32:47;;;;;;;8.83;6.43;;;;;;;;;;5098472;28;20654;-65
2022/11/11 12:35:26;;;;;;;9.23;6.50;;;;;;;;;;5095978;28;20217;-65
2022/11/11 12:38:02;;;;;;;8.53;6.27;;;;;;;;;;5098200;28;20198;-65
2022/11/11 12:40:38;;;;;;;6.03;5.30;;;;;;;;;;5092411;28;20204;-65
2022/11/11 12:43:11;;;;;;;8.10;6.10;;;;;;;;;;5097802;28;20207;-65
2022/11/11 12:45:42;;;;;;;9.83;6.53;;;;;;;;;;5099312;28;20211;-65
2022/11/11 12:48:17;;;;;;;9.30;6.87;;;;;;;;;;5098222;28;20201;-64
2022/11/11 12:50:49;;;;;;;11.67;6.90;;;;;;;;;;5098107;28;20208;-64
2022/11/11 12:53:22;;;;;;;8.63;6.97;;;;;;;;;;5087898;28;20734;-64
2022/11/11 12:55:58;;;;;;;7.57;6.23;;;;;;;;;;5085253;28;20232;-65
2022/11/11 12:58:30;;;;;;;8.83;6.30;;;;;;;;;;5061015;28;20210;-65
2022/11/11 13:01:04;;;;;;;9.47;6.40;;;;;;;;;;5058432;28;20202;-63
2022/11/11 13:03:39;;;;;;;9.70;5.87;;;;;;;;;;5057123;28;20222;-64
2022/11/11 13:06:13;;;;;;;7.07;6.37;;;;;;;;;;5058234;28;20203;-63
2022/11/11 13:08:48;;;;;;;7.57;6.43;;;;;;;;;;5056769;28;20206;-64
2022/11/11 13:11:21;;;;;;;8.63;6.13;;;;;;;;;;5058447;28;20568;-63
2022/11/11 13:13:57;;;;;;;8.07;5.90;;;;;;;;;;5057780;28;20280;-64
2022/11/11 13:16:26;;;;;;;7.03;6.30;;;;;;;;;;5057472;28;20620;-63
2022/11/11 13:18:56;;;;;;;8.57;5.97;;;;;;;;;;5057595;28;20293;-63
2022/11/11 13:21:26;;;;;;;7.17;5.63;;;;;;;;;;5057901;28;20203;-64
2022/11/11 13:23:54;;;;;;;7.47;6.43;;;;;;;;;;5054598;28;20223;-63
2022/11/11 13:26:29;;;;;;;6.83;5.47;;;;;;;;;;5056043;28;20665;-65
2022/11/11 13:29:07;;;;;;;6.93;5.50;;;;;;;;;;5057772;28;20212;-65
2022/11/11 13:31:36;;;;;;;8.07;5.13;;;;;;;;;;5054226;28;20209;-65
2022/11/11 13:34:04;;;;;;;6.40;5.33;;;;;;;;;;5054840;28;20238;-65
2022/11/11 13:36:40;;;;;;;7.13;5.63;;;;;;;;;;5055572;28;20718;-64
2022/11/11 13:39:22;;;;;;;10.13;5.97;;;;;;;;;;5056390;28;20674;-65
2022/11/11 13:41:53;;;;;;;8.60;5.73;;;;;;;;;;5056250;28;20203;-65
2022/11/11 13:44:23;;;;;;;6.57;5.50;;;;;;;;;;5057500;28;20233;-65
2022/11/11 13:46:51;;;;;;;6.47;5.60;;;;;;;;;;5060895;28;20203;-65
2022/11/11 13:49:25;;;;;;;8.93;6.87;;;;;;;;;;5057304;28;20205;-65
2022/11/11 13:51:59;;;;;;;7.23;5.60;;;;;;;;;;5057502;28;20206;-65
2022/11/11 13:54:29;;;;;;;6.00;5.27;;;;;;;;;;5056040;28;20222;-65
2022/11/11 13:57:03;;;;;;;7.83;5.80;;;;;;;;;;5075059;28;20241;-65
2022/11/11 13:59:34;;;;;;;7.27;5.60;;;;;;;;;;5096423;28;20206;-65
2022/11/11 14:02:26;;;;;;;8.03;6.00;;;;;;;;;;5096708;28;20205;-65
2022/11/11 14:05:12;;;;;;;8.00;6.20;;;;;;;;;;5095277;28;20223;-65
2022/11/11 14:07:57;;;;;;;6.73;5.93;;;;;;;;;;5097436;28;20193;-64
2022/11/11 14:10:49;;;;;;;8.83;5.50;;;;;;;;;;5083844;28;20209;-63
2022/11/11 14:13:38;;;;;;;6.97;5.47;;;;;;;;;;5095015;28;20201;-65
2022/11/11 14:16:10;;;;;;;7.03;6.13;;;;;;;;;;5097377;28;20201;-64
2022/11/11 14:18:39;;;;;;;8.03;6.33;;;;;;;;;;5096094;28;20225;-63
2022/11/11 14:21:08;;;;;;;7.03;5.97;;;;;;;;;;5096539;28;20216;-64
2022/11/11 14:23:37;;;;;;;7.07;5.57;;;;;;;;;;5088626;28;20227;-65
2022/11/11 14:26:23;;;;;;;6.90;5.73;;;;;;;;;;5093839;28;20193;-64
2022/11/11 14:28:53;;;;;;;6.47;5.50;;;;;;;;;;5100961;28;20204;-63
2022/11/11 14:31:37;;;;;;;10.50;6.13;;;;;;;;;;5094096;28;20216;-64
2022/11/11 14:34:10;;;;;;;5.83;5.20;;;;;;;;;;5095727;28;20217;-64
2022/11/11 14:36:41;;;;;;;7.60;5.33;;;;;;;;;;5095912;28;20661;-63
2022/11/11 14:39:14;;;;;;;5.63;4.70;;;;;;;;;;5095016;28;20201;-65
2022/11/11 14:41:47;;;;;;;4.87;4.37;;;;;;;;;;5095005;28;20198;-66
2022/11/11 14:44:39;;;;;;;4.83;4.17;;;;;;;;;;5093342;28;20231;-64
2022/11/11 14:47:32;;;;;;;9.60;5.03;;;;;;;;;;5079681;28;20204;-65
2022/11/11 14:50:00;;;;;;;6.30;5.70;;;;;;;;;;5093850;28;20286;-65
2022/11/11 14:52:32;;;;;;;6.07;5.07;;;;;;;;;;5096255;28;20194;-65
2022/11/11 14:55:06;;;;;;;5.47;4.70;;;;;;;;;;5095533;28;20586;-65
2022/11/11 14:57:37;;;;;;;6.43;4.80;;;;;;;;;;5094378;28;20229;-65
2022/11/11 15:00:10;;;;;;;6.70;5.07;;;;;;;;;;5096697;28;20208;-62
2022/11/11 15:02:42;;;;;;;7.13;5.17;;;;;;;;;;5097096;28;20719;-62
2022/11/11 15:05:13;;;;;;;7.33;5.30;;;;;;;;;;5098296;28;20224;-62
2022/11/11 15:07:46;;;;;;;5.63;4.70;;;;;;;;;;5101268;28;20201;-63
2022/11/11 15:10:20;;;;;;;7.30;5.33;;;;;;;;;;5087780;28;20213;-62
2022/11/11 15:13:18;;;;;;;6.07;4.80;;;;;;;;;;5099832;28;20208;-62
2022/11/11 15:15:49;;;;;;;4.93;4.20;;;;;;;;;;5034840;28;20208;-62
2022/11/11 15:18:28;;;;;;;5.07;4.40;;;;;;;;;;5088170;28;20218;-61
2022/11/11 15:21:00;;;;;;;7.57;4.87;;;;;;;;;;5101033;28;20201;-62
2022/11/11 15:23:33;;;;;;;10.67;4.57;;;;;;;;;;5098902;28;20244;-61
2022/11/11 15:26:06;;;;;;;10.87;8.10;;;;;;;;;;5100974;28;20216;-62
2022/11/11 15:28:50;;;;;;;9.47;6.27;;;;;;;;;;5106890;28;20219;-62
2022/11/11 15:31:21;;;;;;;9.73;5.87;;;;;;;;;;5098837;28;20194;-62
2022/11/11 15:33:56;;;;;;;10.53;6.23;;;;;;;;;;5100688;28;20576;-65
2022/11/11 15:36:29;;;;;;;9.23;5.87;;;;;;;;;;5096097;28;20212;-65
2022/11/11 15:38:59;;;;;;;8.97;5.57;;;;;;;;;;5100348;28;20264;-65
2022/11/11 15:41:36;;;;;;;7.37;5.10;;;;;;;;;;5099768;28;20288;-64
2022/11/11 15:44:07;;;;;;;9.77;4.70;;;;;;;;;;5100000;28;20221;-65
2022/11/11 15:46:38;;;;;;;8.03;4.73;;;;;;;;;;5099609;28;20212;-65
2022/11/11 15:49:12;;;;;;;5.07;4.30;;;;;;;;;;5096358;28;20208;-65
2022/11/11 15:51:43;;;;;;;8.13;5.37;;;;;;;;;;5099696;28;20206;-63
2022/11/11 15:54:18;;;;;;;6.63;4.80;;;;;;;;;;5099996;28;20221;-65
2022/11/11 15:56:46;;;;;;;6.27;4.73;;;;;;;;;;5099686;28;20328;-64
2022/11/11 15:59:18;;;;;;;4.70;4.30;;;;;;;;;;5098107;28;20280;-64
2022/11/11 16:01:46;;;;;;;7.97;5.03;;;;;;;;;;5090514;28;20210;-64
2022/11/11 16:04:18;;;;;;;6.50;5.37;;;;;;;;;;5099180;28;20271;-65
2022/11/11 16:07:06;;;;;;;8.47;5.77;;;;;;;;;;5097903;28;20194;-64
2022/11/11 16:09:37;;;;;;;7.07;5.63;;;;;;;;;;5098963;28;20210;-63
2022/11/11 16:12:10;;;;;;;8.30;5.30;;;;;;;;;;5098759;28;20206;-64